METAR AND TAF INFORMATION
METAR FOR LIRA
ADDS - METARS form results

(1241 UTC 07 August 2020)
Data provider http://aviationweather.gov/metar/data/
 
METAR text: LIRA 071220Z 27009KT 220V320 9999 SCT040 31/15 Q1014
Conditions at: LIRA (CIAMPINO(IT-AFB/, IT) observed 1220 UTC 07 August 2020
Temperature: 31.0°C (88°F)
Dewpoint: 15.0°C (59°F) [RH = 38%]
Pressure (altimeter): 29.94 inches Hg (1014.0 mb)
Winds: from the W (270 degrees) at 10 MPH (9 knots; 4.6 m/s)
Visibility: 6 or more miles (10+ km)
Ceiling: at least 12,000 feet AGL
Clouds: scattered clouds at 4000 feet AGL
Weather: no significant weather observed at this time

METAR text: LIRA 071150Z VRB07KT 9999 SCT040 31/16 Q1014
Conditions at: LIRA (CIAMPINO(IT-AFB/, IT) observed 1150 UTC 07 August 2020
Temperature: 31.0°C (88°F)
Dewpoint: 16.0°C (61°F) [RH = 40%]
Pressure (altimeter): 29.94 inches Hg (1014.0 mb)
Winds: variable direction winds at 8 MPH (7 knots; 3.6 m/s)
Visibility: 6 or more miles (10+ km)
Ceiling: at least 12,000 feet AGL
Clouds: scattered clouds at 4000 feet AGL
Weather: no significant weather observed at this time

Forecast for: LIRA (CIAMPINO(IT-AFB/, IT)
Text: TAF LIRA 071100Z 0712/0812 24010KT 9999 FEW030
Forecast period: 1200 to 1600 UTC 07 August 2020
Forecast type: FROM: standard forecast or significant change
Winds: from the WSW (240 degrees) at 12 MPH (10 knots; 5.1 m/s)
Visibility: 6 or more miles (10+ km)
Ceiling: at least 12,000 feet AGL
Clouds: few clouds at 3000 feet AGL
Weather: no significant weather forecast for this period
Text: BECMG 0716/0718 VRB05KT
Forecast period: 1600 UTC 07 August 2020 to 1200 UTC 08 August 2020
Forecast type: BECOMING: Conditions expected to become as follows by 1800 UTC 07 August 2020
Winds: variable direction winds at 6 MPH (5 knots; 2.6 m/s)
Visibility: 6 or more miles (10+ km)
Ceiling: at least 12,000 feet AGL
Clouds: few clouds at 3000 feet AGL
Weather: no significant weather forecast for this period

 AIRPORT MAP

 RUNWAY INFORMATION
Runway 15 Runway length 7242 ft Runway width 154 ft
Runway elevation 341 ft Runway displaced threshold 0 ft Runway heading 153
Runway 33 Runway length 7242 ft Runway width 154 ft
Runway elevation 427 ft Runway displaced threshold 0 ft Runway heading 333

 AIRPORT FREQUENCIES
Type ARR Name ROMA ARR Frequency 119.2 MHZ
Type CLD Name CLNC DEL Frequency 119.4 MHZ
Type DIR Name ROMA DIREC Frequency 119.2 MHZ
Type GND Name GND Frequency 121.75 MHZ
Type TWR Name TWR Frequency 120.5 MHZ

 AIRPORT NEAR NAVIGATION AIDS
Type NDB Name Ciampino Frequency 412 KHZ
Type VOR-DME Name Roma Frequency 110800 KHZ



Powered by Virtual Airlines Manager [v2.6.2]